Leconfield, United Kingdom
Current Conditions -  °F | °C
As of 12:50 PM on Tuesday 21 Oct 2014 (Local Time) from EGXV Reporting Station
Few Clouds Few Clouds  
Wind Chill: 54°   Ceiling: Unl
Heat Index: 54°   Visibility: 6mi
Dew Point: 43°   Wind: 20mph
Humidity: 67%   Direction: 270°W
Pressure: 29.44"   Gusts: 33mph
Location:  53.88°N, 0.46°W
Report Text: EGXV 211150Z AUTO 27017G29KT 9999 FEW034/// 12/06 Q0997
Loading
Personal Weather Stations






























Interactive Weather Map
Tropical Storm Tracking
New forecast layout! Learn more

10-Day Weather Forecast

Advertisements
Track Severe Weather on mobile